createdAt,value
2023-05-16T00:02:42.539Z,9.44
2023-05-16T00:05:46.697Z,9.35
2023-05-16T00:08:51.656Z,9.33
2023-05-16T00:11:55.300Z,9.12
2023-05-16T00:14:59.410Z,9.06
2023-05-16T00:18:03.083Z,8.86
2023-05-16T00:21:07.432Z,8.86
2023-05-16T00:24:12.347Z,8.83
2023-05-16T00:27:15.819Z,8.76
2023-05-16T00:30:19.530Z,8.61
2023-05-16T00:33:23.104Z,8.65
2023-05-16T00:36:26.612Z,8.54
2023-05-16T00:39:32.289Z,8.60
2023-05-16T00:42:35.815Z,8.53
2023-05-16T00:45:39.505Z,8.49
2023-05-16T00:48:42.982Z,8.53
2023-05-16T00:51:46.809Z,8.55
2023-05-16T00:54:52.667Z,8.53
2023-05-16T00:57:56.929Z,8.56
2023-05-16T01:01:02.072Z,8.53
2023-05-16T01:04:07.067Z,8.54
2023-05-16T01:07:10.759Z,8.58
2023-05-16T01:10:16.781Z,8.57
2023-05-16T01:13:31.680Z,8.57
2023-05-16T01:16:47.714Z,8.57
2023-05-16T01:20:08.280Z,8.64
2023-05-16T01:23:35.086Z,8.59
2023-05-16T01:26:41.200Z,8.64
2023-05-16T01:29:44.702Z,8.69
2023-05-16T01:32:48.362Z,8.63
2023-05-16T01:36:04.315Z,8.61
2023-05-16T01:39:28.995Z,8.64
2023-05-16T01:42:38.194Z,8.64
2023-05-16T01:45:52.263Z,8.65
2023-05-16T01:49:17.841Z,8.64
2023-05-16T01:52:32.812Z,8.63
2023-05-16T01:55:46.714Z,8.64
2023-05-16T01:58:54.453Z,8.61
2023-05-16T02:01:59.480Z,8.61
2023-05-16T02:05:03.012Z,8.61
2023-05-16T02:08:07.141Z,8.61
2023-05-16T02:11:10.755Z,8.60
2023-05-16T02:14:15.710Z,8.55
2023-05-16T02:17:19.506Z,8.55
2023-05-16T02:20:23.291Z,8.54
2023-05-16T02:23:26.787Z,8.63
2023-05-16T02:26:30.249Z,8.56
2023-05-16T02:29:35.166Z,8.56
2023-05-16T02:32:39.070Z,8.57
2023-05-16T02:35:43.750Z,8.54
2023-05-16T02:38:47.397Z,8.46
2023-05-16T02:41:50.901Z,8.35
2023-05-16T02:44:55.790Z,8.25
2023-05-16T02:47:59.321Z,8.23
2023-05-16T02:51:02.817Z,8.12
2023-05-16T02:54:09.350Z,8.04
2023-05-16T02:57:12.892Z,8.03
2023-05-16T03:00:18.971Z,7.99
2023-05-16T03:03:22.600Z,7.93
2023-05-16T03:06:26.229Z,7.85
2023-05-16T03:09:29.794Z,7.76
2023-05-16T03:12:33.890Z,7.67
2023-05-16T03:15:38.947Z,7.66
2023-05-16T03:18:42.656Z,7.63
2023-05-16T03:21:46.256Z,7.62
2023-05-16T03:24:49.950Z,7.59
2023-05-16T03:27:53.611Z,7.53
2023-05-16T03:30:59.111Z,7.60
2023-05-16T03:34:02.611Z,7.56
2023-05-16T03:37:06.953Z,7.54
2023-05-16T03:40:11.658Z,7.49
2023-05-16T03:43:15.358Z,7.39
2023-05-16T03:46:20.342Z,7.36
2023-05-16T03:49:28.588Z,7.33
2023-05-16T03:52:32.153Z,7.31
2023-05-16T03:55:35.781Z,7.28
2023-05-16T03:58:39.400Z,7.24
2023-05-16T04:01:44.569Z,7.19
2023-05-16T04:04:48.214Z,7.22
2023-05-16T04:07:51.765Z,7.28
2023-05-16T04:10:55.915Z,7.23
2023-05-16T04:14:02.028Z,7.15
2023-05-16T04:17:07.333Z,7.38
2023-05-16T04:20:12.258Z,7.27
2023-05-16T04:23:16.146Z,7.39
2023-05-16T04:26:22.623Z,7.44
2023-05-16T04:29:26.627Z,7.53
2023-05-16T04:32:34.610Z,7.62
2023-05-16T04:35:38.363Z,7.52
2023-05-16T04:38:41.891Z,7.52
2023-05-16T04:41:45.454Z,7.35
2023-05-16T04:44:49.013Z,7.31
2023-05-16T04:47:54.041Z,7.29
2023-05-16T04:50:57.767Z,7.17
2023-05-16T04:54:01.379Z,7.29
2023-05-16T04:57:05.493Z,7.21
2023-05-16T05:00:12.401Z,7.17
2023-05-16T05:03:18.251Z,7.28
2023-05-16T05:06:21.871Z,7.28
2023-05-16T05:09:26.107Z,7.44
2023-05-16T05:12:29.629Z,7.59
2023-05-16T05:15:33.348Z,7.68
2023-05-16T05:18:38.423Z,7.88
2023-05-16T05:21:42.148Z,7.92
2023-05-16T05:24:45.706Z,8.04
2023-05-16T05:27:49.304Z,7.87
2023-05-16T05:30:52.845Z,7.93
2023-05-16T05:33:57.761Z,7.91
2023-05-16T05:37:01.270Z,8.15
2023-05-16T05:40:05.706Z,8.18
2023-05-16T05:43:09.156Z,7.93
2023-05-16T05:46:13.105Z,8.14
2023-05-16T05:49:18.413Z,8.53
2023-05-16T05:52:22.058Z,8.89
2023-05-16T05:55:25.914Z,9.01
2023-05-16T05:58:29.638Z,9.02
2023-05-16T06:01:33.189Z,9.46
2023-05-16T06:04:38.861Z,9.27
2023-05-16T06:07:42.350Z,9.11
2023-05-16T06:10:46.486Z,9.26
2023-05-16T06:13:50.041Z,9.31
2023-05-16T06:16:53.717Z,9.37
2023-05-16T06:19:58.820Z,9.33
2023-05-16T06:23:02.542Z,9.44
2023-05-16T06:26:06.277Z,9.67
2023-05-16T06:29:09.869Z,9.52
2023-05-16T06:32:13.626Z,9.40
2023-05-16T06:35:18.941Z,9.85
2023-05-16T06:38:22.548Z,9.72
2023-05-16T06:41:26.498Z,10.16
2023-05-16T06:44:30.057Z,10.20
2023-05-16T06:47:33.691Z,10.28
2023-05-16T06:50:38.673Z,10.00
2023-05-16T06:53:42.265Z,10.22
2023-05-16T06:56:46.822Z,10.57
2023-05-16T06:59:50.370Z,10.43
2023-05-16T07:02:54.129Z,10.41
2023-05-16T07:05:59.055Z,10.49
2023-05-16T07:09:03.138Z,10.54
2023-05-16T07:12:07.694Z,10.59
2023-05-16T07:15:31.294Z,10.00
2023-05-16T07:18:35.157Z,10.16
2023-05-16T07:21:40.281Z,10.21
2023-05-16T07:24:44.019Z,10.46
2023-05-16T07:27:47.566Z,10.33
2023-05-16T07:30:51.179Z,10.73
2023-05-16T07:33:55.249Z,11.94
2023-05-16T07:37:00.225Z,11.57
2023-05-16T07:40:04.824Z,11.90
2023-05-16T07:43:08.388Z,10.30
2023-05-16T07:46:12.772Z,9.86
2023-05-16T07:49:16.453Z,9.98
2023-05-16T07:52:21.633Z,10.18
2023-05-16T07:55:25.422Z,10.17
2023-05-16T07:58:29.520Z,10.47
2023-05-16T08:01:33.252Z,9.92
2023-05-16T08:04:36.895Z,10.19
2023-05-16T08:07:41.910Z,10.41
2023-05-16T08:10:45.612Z,10.79
2023-05-16T08:13:49.401Z,11.16
2023-05-16T08:16:52.951Z,11.98
2023-05-16T08:19:56.795Z,11.77
2023-05-16T08:23:01.848Z,12.16
2023-05-16T08:26:05.827Z,12.05
2023-05-16T08:29:09.545Z,11.07
2023-05-16T08:32:13.329Z,10.79
2023-05-16T08:35:17.116Z,12.31
2023-05-16T08:38:22.559Z,12.32
2023-05-16T08:41:26.198Z,11.87
2023-05-16T08:44:30.991Z,12.30
2023-05-16T08:47:36.822Z,12.43
2023-05-16T08:50:42.834Z,11.67
2023-05-16T08:53:55.454Z,11.71
2023-05-16T08:57:01.096Z,12.20
2023-05-16T09:00:11.884Z,13.24
2023-05-16T09:03:16.042Z,13.60
2023-05-16T09:06:20.610Z,13.47
2023-05-16T09:09:25.752Z,13.49
2023-05-16T09:12:29.393Z,14.24
2023-05-16T09:15:34.698Z,12.82
2023-05-16T09:18:38.844Z,12.86
2023-05-16T09:21:43.146Z,13.00
2023-05-16T09:24:48.790Z,13.25
2023-05-16T09:27:54.965Z,13.62
2023-05-16T09:31:00.274Z,13.16
2023-05-16T09:34:04.816Z,13.95
2023-05-16T09:37:08.420Z,13.15
2023-05-16T09:40:14.495Z,13.27
2023-05-16T09:43:18.913Z,13.21
2023-05-16T09:46:27.695Z,12.69
2023-05-16T09:49:31.501Z,11.97
2023-05-16T09:52:35.290Z,12.29
2023-05-16T09:55:40.190Z,12.62
2023-05-16T09:58:46.588Z,12.53
2023-05-16T10:01:52.295Z,12.41
2023-05-16T10:04:55.856Z,12.34
2023-05-16T10:08:00.117Z,11.27
2023-05-16T10:11:07.368Z,10.67
2023-05-16T10:14:13.082Z,10.76
2023-05-16T10:17:17.557Z,9.97
2023-05-16T10:20:24.271Z,9.57
2023-05-16T10:23:30.773Z,9.05
2023-05-16T10:26:36.330Z,9.13
2023-05-16T10:29:53.510Z,9.36
2023-05-16T10:33:00.829Z,9.49
2023-05-16T10:36:05.590Z,9.66
2023-05-16T10:39:10.011Z,9.52
2023-05-16T10:42:18.386Z,10.05
2023-05-16T10:45:23.341Z,10.40
2023-05-16T10:48:35.315Z,11.20
2023-05-16T10:51:40.030Z,11.46
2023-05-16T10:54:51.051Z,10.03
2023-05-16T10:57:55.977Z,9.55
2023-05-16T11:01:22.230Z,10.38
2023-05-16T11:04:45.946Z,10.43
2023-05-16T11:08:06.595Z,10.42
2023-05-16T11:11:45.602Z,10.66
2023-05-16T11:14:53.592Z,10.70
2023-05-16T11:18:09.535Z,11.29
2023-05-16T11:21:13.253Z,11.05
2023-05-16T11:24:31.063Z,11.48
2023-05-16T11:27:37.338Z,11.76
2023-05-16T11:30:45.843Z,11.22
2023-05-16T11:33:49.684Z,11.49
2023-05-16T11:36:53.429Z,10.96
2023-05-16T11:40:01.691Z,10.79
2023-05-16T11:43:07.335Z,11.62
2023-05-16T11:46:14.941Z,11.43
2023-05-16T11:49:19.865Z,11.67
2023-05-16T11:52:23.638Z,11.62
2023-05-16T11:55:41.143Z,11.11
2023-05-16T11:58:47.406Z,11.51
2023-05-16T12:01:53.136Z,11.62
2023-05-16T12:04:57.028Z,11.84
2023-05-16T12:08:01.003Z,11.74
2023-05-16T12:11:04.878Z,11.47
2023-05-16T12:14:09.812Z,11.62
2023-05-16T12:17:15.491Z,11.86
2023-05-16T12:20:19.973Z,12.15
2023-05-16T12:23:23.626Z,12.05
2023-05-16T12:26:30.831Z,12.24
2023-05-16T12:29:34.715Z,12.30
2023-05-16T12:32:40.488Z,12.33
2023-05-16T12:35:47.493Z,12.17
2023-05-16T12:38:52.258Z,12.23
2023-05-16T12:41:55.782Z,11.52
2023-05-16T12:44:59.326Z,11.12
2023-05-16T12:48:14.012Z,11.16
2023-05-16T12:51:20.181Z,10.96
2023-05-16T12:54:23.906Z,11.57
2023-05-16T12:57:27.797Z,12.07
2023-05-16T13:00:32.136Z,12.21
2023-05-16T13:03:38.144Z,11.45
2023-05-16T13:06:57.264Z,11.54
2023-05-16T13:10:02.563Z,11.40
2023-05-16T13:13:06.300Z,11.91
2023-05-16T13:16:10.392Z,12.17
2023-05-16T13:19:15.486Z,11.77
2023-05-16T13:22:19.178Z,11.27
2023-05-16T13:25:23.023Z,11.30
2023-05-16T13:28:26.925Z,11.29
2023-05-16T13:31:30.513Z,11.04
2023-05-16T13:34:35.543Z,11.11
2023-05-16T13:37:39.747Z,11.18
2023-05-16T13:40:43.296Z,11.49
2023-05-16T13:43:46.865Z,11.58
2023-05-16T13:46:50.939Z,11.86
2023-05-16T13:49:56.057Z,12.72
2023-05-16T13:52:59.738Z,12.09
2023-05-16T13:56:03.339Z,12.20
2023-05-16T13:59:07.646Z,11.87
2023-05-16T14:02:14.978Z,11.09
2023-05-16T14:05:20.439Z,10.39
2023-05-16T14:08:23.951Z,10.06
2023-05-16T14:11:29.278Z,10.79
2023-05-16T14:14:33.144Z,11.09
2023-05-16T14:17:36.997Z,11.59
2023-05-16T14:20:42.079Z,11.96
2023-05-16T14:23:45.686Z,11.58
2023-05-16T14:26:49.420Z,12.06
2023-05-16T14:29:52.932Z,12.07
2023-05-16T14:32:56.554Z,12.48
2023-05-16T14:36:01.563Z,12.79
2023-05-16T14:39:05.411Z,12.59
2023-05-16T14:42:09.194Z,12.42
2023-05-16T14:45:13.821Z,12.11
2023-05-16T14:48:17.983Z,11.86
2023-05-16T14:51:22.956Z,12.01
2023-05-16T14:54:26.629Z,11.84
2023-05-16T14:57:30.226Z,11.11
2023-05-16T15:00:33.849Z,11.21
2023-05-16T15:03:53.819Z,11.18
2023-05-16T15:07:00.685Z,11.20
2023-05-16T15:10:04.300Z,11.65
2023-05-16T15:13:07.881Z,11.86
2023-05-16T15:16:11.782Z,11.84
2023-05-16T15:19:15.453Z,11.62
2023-05-16T15:22:20.585Z,11.23
2023-05-16T15:25:24.159Z,10.89
2023-05-16T15:28:27.907Z,10.23
2023-05-16T15:31:32.255Z,10.16
2023-05-16T15:34:37.040Z,10.22
2023-05-16T15:37:42.004Z,11.08
2023-05-16T15:40:45.688Z,11.29
2023-05-16T15:43:49.646Z,11.06
2023-05-16T15:46:53.317Z,11.20
2023-05-16T15:49:56.917Z,10.80
2023-05-16T15:53:01.984Z,10.78
2023-05-16T15:56:06.217Z,10.70
2023-05-16T15:59:09.860Z,10.79
2023-05-16T16:02:13.559Z,11.00
2023-05-16T16:05:17.594Z,11.36
2023-05-16T16:08:22.575Z,11.03
2023-05-16T16:11:28.035Z,10.65
2023-05-16T16:14:31.529Z,10.10
2023-05-16T16:17:35.389Z,9.59
2023-05-16T16:20:38.972Z,9.06
2023-05-16T16:23:43.867Z,9.14
2023-05-16T16:26:47.545Z,9.19
2023-05-16T16:29:51.196Z,9.27
2023-05-16T16:32:55.034Z,9.67
2023-05-16T16:35:59.421Z,9.79
2023-05-16T16:39:05.807Z,9.58
2023-05-16T16:42:09.765Z,9.68
2023-05-16T16:45:13.556Z,9.77
2023-05-16T16:48:17.175Z,9.94
2023-05-16T16:51:21.056Z,10.16
2023-05-16T16:54:26.158Z,9.95
2023-05-16T16:57:29.805Z,9.97
2023-05-16T17:00:33.619Z,10.23
2023-05-16T17:03:37.192Z,10.36
2023-05-16T17:06:41.097Z,10.33
2023-05-16T17:09:46.443Z,10.25
2023-05-16T17:12:50.108Z,10.22
2023-05-16T17:15:53.770Z,10.25
2023-05-16T17:18:57.630Z,10.12
2023-05-16T17:22:01.321Z,10.18
2023-05-16T17:25:08.069Z,10.14
2023-05-16T17:28:11.694Z,10.15
2023-05-16T17:31:15.973Z,10.05
2023-05-16T17:34:19.552Z,9.86
2023-05-16T17:37:24.307Z,9.51
2023-05-16T17:40:29.385Z,9.48
2023-05-16T17:43:33.729Z,9.38
2023-05-16T17:46:38.487Z,9.35
2023-05-16T17:49:42.075Z,9.41
2023-05-16T17:52:46.425Z,9.54
2023-05-16T17:55:51.720Z,9.55
2023-05-16T17:58:55.298Z,9.66
2023-05-16T18:01:58.946Z,9.50
2023-05-16T18:05:02.598Z,9.48
2023-05-16T18:08:08.570Z,9.61
2023-05-16T18:11:13.938Z,9.53
2023-05-16T18:14:17.525Z,9.40
2023-05-16T18:17:21.309Z,9.45
2023-05-16T18:20:24.888Z,9.48
2023-05-16T18:23:28.477Z,9.52
2023-05-16T18:26:33.489Z,9.53
2023-05-16T18:29:37.185Z,9.48
2023-05-16T18:32:41.685Z,9.52
2023-05-16T18:35:45.389Z,9.58
2023-05-16T18:38:48.995Z,9.56
2023-05-16T18:41:54.080Z,9.59
2023-05-16T18:44:57.745Z,9.57
2023-05-16T18:48:01.488Z,9.60
2023-05-16T18:51:05.739Z,9.58
2023-05-16T18:54:09.400Z,9.58
2023-05-16T18:57:14.789Z,9.55
2023-05-16T19:00:20.096Z,9.57
2023-05-16T19:03:23.769Z,9.59
2023-05-16T19:06:27.652Z,9.58
2023-05-16T19:09:32.565Z,9.58
2023-05-16T19:12:37.501Z,9.57
2023-05-16T19:15:41.344Z,9.59
2023-05-16T19:18:45.191Z,9.52
2023-05-16T19:21:49.015Z,9.50
2023-05-16T19:24:52.739Z,9.55
2023-05-16T19:27:57.749Z,9.52
2023-05-16T19:31:01.401Z,9.42
2023-05-16T19:34:05.650Z,9.26
2023-05-16T19:37:09.715Z,9.23
2023-05-16T19:40:16.323Z,9.12
2023-05-16T19:43:22.128Z,9.00
2023-05-16T19:46:25.742Z,8.95
2023-05-16T19:49:29.429Z,8.97
2023-05-16T19:52:33.125Z,8.91
2023-05-16T19:55:39.180Z,8.91
2023-05-16T19:58:44.447Z,8.88
2023-05-16T20:01:48.059Z,8.88
2023-05-16T20:04:52.050Z,8.85
2023-05-16T20:07:56.181Z,8.84
2023-05-16T20:11:00.053Z,8.86
2023-05-16T20:14:05.073Z,8.77
2023-05-16T20:17:08.729Z,8.74
2023-05-16T20:20:12.880Z,8.76
2023-05-16T20:23:16.537Z,8.71
2023-05-16T20:26:20.110Z,8.63
2023-05-16T20:29:25.545Z,8.67
2023-05-16T20:32:29.441Z,8.62
2023-05-16T20:35:33.208Z,8.66
2023-05-16T20:38:38.125Z,8.65
2023-05-16T20:41:41.656Z,8.66
2023-05-16T20:44:46.659Z,8.74
2023-05-16T20:47:51.253Z,8.75
2023-05-16T20:50:56.476Z,8.85
2023-05-16T20:54:00.138Z,8.85
2023-05-16T20:57:03.814Z,8.82
2023-05-16T21:00:10.862Z,8.84
2023-05-16T21:03:14.898Z,8.84
2023-05-16T21:06:18.461Z,8.91
2023-05-16T21:09:22.101Z,8.90
2023-05-16T21:12:25.758Z,8.87
2023-05-16T21:15:30.873Z,8.86
2023-05-16T21:18:34.551Z,8.90
2023-05-16T21:21:39.580Z,8.86
2023-05-16T21:24:43.196Z,8.85
2023-05-16T21:27:46.732Z,8.86
2023-05-16T21:30:51.707Z,8.87
2023-05-16T21:33:55.349Z,8.90
2023-05-16T21:36:59.980Z,8.85
2023-05-16T21:40:03.836Z,8.87
2023-05-16T21:43:07.423Z,8.84
2023-05-16T21:46:12.333Z,8.85
2023-05-16T21:49:15.997Z,8.91
2023-05-16T21:52:19.607Z,8.89
2023-05-16T21:55:23.160Z,9.00
2023-05-16T21:58:26.756Z,8.97
2023-05-16T22:01:31.768Z,8.98
2023-05-16T22:04:35.643Z,8.95
2023-05-16T22:07:39.234Z,8.96
2023-05-16T22:10:43.048Z,8.92
2023-05-16T22:13:46.762Z,8.90
2023-05-16T22:16:52.237Z,8.92
2023-05-16T22:19:55.841Z,8.95
2023-05-16T22:22:59.445Z,8.99
2023-05-16T22:26:03.153Z,8.90
2023-05-16T22:29:06.872Z,8.91
2023-05-16T22:32:12.301Z,8.85
2023-05-16T22:35:15.989Z,8.88
2023-05-16T22:38:19.588Z,8.87
2023-05-16T22:41:24.102Z,8.90
2023-05-16T22:44:28.073Z,8.87
2023-05-16T22:47:32.983Z,8.80
2023-05-16T22:50:36.599Z,8.81
2023-05-16T22:53:40.594Z,8.89
2023-05-16T22:56:44.301Z,8.81
2023-05-16T22:59:47.996Z,8.78
2023-05-16T23:02:53.601Z,8.77
2023-05-16T23:05:57.655Z,8.73
2023-05-16T23:09:02.434Z,8.67
2023-05-16T23:12:06.576Z,8.64
2023-05-16T23:15:11.290Z,8.65
2023-05-16T23:18:16.453Z,8.60
2023-05-16T23:21:20.032Z,8.54
2023-05-16T23:24:25.083Z,8.53
2023-05-16T23:27:28.939Z,8.57
2023-05-16T23:30:32.461Z,8.38
2023-05-16T23:33:37.387Z,8.33
2023-05-16T23:36:40.924Z,8.27
2023-05-16T23:39:44.666Z,8.15
2023-05-16T23:42:48.210Z,8.10
2023-05-16T23:45:51.897Z,8.04
2023-05-16T23:48:57.997Z,8.03
2023-05-16T23:52:01.797Z,7.98
2023-05-16T23:55:06.200Z,7.95
2023-05-16T23:58:09.812Z,7.86
